Time;durP1;ratioP1;P1;durP2;ratioP2;P2;SDS_P1;SDS_P2;PMS_P1;PMS_P2;Temp;Humidity;BMP_temperature;BMP_pressure;BME280_temperature;BME280_humidity;BME280_pressure;Samples;Min_cycle;Max_cycle;Signal;HPM_P1;HPM_P2
2022/10/10 04:02:11;;;;;;;7.53;5.27;;;11.50;99.90;;;;;;5120824;23;20614;-72
2022/10/10 04:04:38;;;;;;;8.23;5.60;;;11.50;99.90;;;;;;4918448;29;20465;-74
2022/10/10 04:07:05;;;;;;;9.13;5.63;;;11.40;99.90;;;;;;4913032;29;20455;-75
2022/10/10 04:09:31;;;;;;;9.00;4.73;;;11.50;99.90;;;;;;4916320;29;20463;-75
2022/10/10 04:11:58;;;;;;;7.10;4.83;;;11.40;99.90;;;;;;4920904;29;20498;-75
2022/10/10 04:14:25;;;;;;;12.07;5.30;;;11.50;99.90;;;;;;4916433;29;20463;-75
2022/10/10 04:16:52;;;;;;;5.60;4.50;;;11.40;99.90;;;;;;4917964;29;20507;-75
2022/10/10 04:19:20;;;;;;;6.90;4.90;;;11.40;99.90;;;;;;4919554;29;20542;-75
2022/10/10 04:21:47;;;;;;;6.57;5.20;;;11.40;99.90;;;;;;4917353;29;20491;-75
2022/10/10 04:24:14;;;;;;;6.90;4.90;;;11.40;99.90;;;;;;4919252;29;20467;-75
2022/10/10 04:26:40;;;;;;;7.00;5.70;;;11.40;99.90;;;;;;4927147;29;20463;-74
2022/10/10 04:29:07;;;;;;;7.13;5.83;;;11.40;99.90;;;;;;4926589;29;20462;-73
2022/10/10 04:31:34;;;;;;;9.67;6.80;;;11.40;99.90;;;;;;4925072;29;20569;-75
2022/10/10 04:34:01;;;;;;;11.13;8.37;;;11.30;99.90;;;;;;4920087;29;21216;-75
2022/10/10 04:36:29;;;;;;;22.50;8.10;;;11.30;99.90;;;;;;4911846;29;21008;-74
2022/10/10 04:38:56;;;;;;;11.53;8.07;;;11.40;99.90;;;;;;4912164;29;20470;-74
2022/10/10 04:41:22;;;;;;;12.33;6.00;;;11.30;99.90;;;;;;4912029;29;20870;-74
2022/10/10 04:43:49;;;;;;;9.63;5.53;;;11.30;99.90;;;;;;4911800;29;20468;-74
2022/10/10 04:46:16;;;;;;;8.63;5.57;;;11.30;99.90;;;;;;4911196;29;20483;-74
2022/10/10 04:48:43;;;;;;;6.23;5.13;;;11.30;99.90;;;;;;4911814;29;20467;-75
2022/10/10 04:51:10;;;;;;;6.77;5.43;;;11.30;99.90;;;;;;4912019;29;20491;-74
2022/10/10 04:53:38;;;;;;;7.77;6.07;;;11.20;99.90;;;;;;4911192;29;20514;-75
2022/10/10 04:56:05;;;;;;;10.10;6.17;;;11.20;99.90;;;;;;4910764;29;20503;-75
2022/10/10 04:58:32;;;;;;;12.30;6.83;;;11.20;99.90;;;;;;4910574;29;20467;-75
2022/10/10 05:00:59;;;;;;;8.17;6.03;;;11.20;99.90;;;;;;4911234;29;20491;-76
2022/10/10 05:03:25;;;;;;;9.40;6.10;;;11.20;99.90;;;;;;4911393;29;20471;-67
2022/10/10 05:05:53;;;;;;;8.10;6.30;;;11.20;99.90;;;;;;4911210;29;20466;-76
2022/10/10 05:08:20;;;;;;;10.70;6.77;;;11.30;99.90;;;;;;4912449;29;20475;-76
2022/10/10 05:10:51;;;;;;;9.43;6.87;;;11.20;99.90;;;;;;4912447;29;20502;-77
2022/10/10 05:13:17;;;;;;;6.83;5.80;;;11.20;99.90;;;;;;4914159;29;20462;-77
2022/10/10 05:15:44;;;;;;;9.53;5.57;;;11.20;99.90;;;;;;4912721;29;21454;-73
2022/10/10 05:18:11;;;;;;;7.10;5.50;;;11.20;99.90;;;;;;4906036;29;20491;-77
2022/10/10 05:20:38;;;;;;;10.87;6.17;;;11.10;99.90;;;;;;4911261;29;20486;-76
2022/10/10 05:23:05;;;;;;;7.10;5.37;;;11.10;99.90;;;;;;4897839;29;21019;-77
2022/10/10 05:25:31;;;;;;;6.30;5.20;;;11.10;99.90;;;;;;4891834;29;20464;-76
2022/10/10 05:28:00;;;;;;;8.27;5.60;;;11.10;99.90;;;;;;4908237;29;20478;-79
2022/10/10 05:30:28;;;;;;;9.47;5.70;;;11.10;99.90;;;;;;4911083;29;20459;-77
2022/10/10 05:32:55;;;;;;;11.10;5.57;;;11.10;99.90;;;;;;4909632;29;20459;-76
2022/10/10 05:35:22;;;;;;;7.33;5.33;;;11.10;99.90;;;;;;4907481;29;20519;-75
2022/10/10 05:37:49;;;;;;;8.87;5.70;;;11.10;99.90;;;;;;4910845;29;20459;-76
2022/10/10 05:40:15;;;;;;;7.90;5.93;;;11.10;99.90;;;;;;4911108;29;20461;-78
2022/10/10 05:42:42;;;;;;;12.60;5.10;;;11.10;99.90;;;;;;4909889;29;20471;-75
2022/10/10 05:45:11;;;;;;;10.07;6.20;;;11.10;99.90;;;;;;4906267;29;20975;-74
2022/10/10 05:47:38;;;;;;;18.40;5.93;;;11.10;99.90;;;;;;4909966;29;20471;-77
2022/10/10 05:50:06;;;;;;;9.10;5.87;;;11.10;99.90;;;;;;4909589;29;20539;-75
2022/10/10 05:52:34;;;;;;;6.47;5.33;;;11.10;99.90;;;;;;4904670;29;20472;-76
2022/10/10 05:55:00;;;;;;;8.90;6.07;;;11.10;99.90;;;;;;4892629;29;21079;-74
2022/10/10 05:57:27;;;;;;;7.63;5.43;;;11.10;99.90;;;;;;4906117;29;20460;-76
2022/10/10 05:59:54;;;;;;;8.07;5.83;;;11.10;99.90;;;;;;4902885;29;20452;-77
2022/10/10 06:02:22;;;;;;;10.90;5.73;;;11.10;99.90;;;;;;4902320;29;20903;-73
2022/10/10 06:04:51;;;;;;;10.43;6.20;;;11.10;99.90;;;;;;4898017;29;20467;-73
2022/10/10 06:07:18;;;;;;;6.50;5.63;;;11.10;99.90;;;;;;4894208;29;20666;-77
2022/10/10 06:09:44;;;;;;;9.17;6.23;;;11.00;99.90;;;;;;4898135;29;20463;-76
2022/10/10 06:12:11;;;;;;;9.20;5.63;;;11.00;99.90;;;;;;4899716;29;20495;-76
2022/10/10 06:14:38;;;;;;;10.90;6.80;;;11.00;99.90;;;;;;4892226;29;20479;-75
2022/10/10 06:17:05;;;;;;;10.27;6.03;;;11.00;99.90;;;;;;4898290;29;20522;-77
2022/10/10 06:19:33;;;;;;;9.70;5.80;;;11.00;99.90;;;;;;4911743;29;20467;-77
2022/10/10 06:22:00;;;;;;;9.73;5.83;;;10.90;99.90;;;;;;4911455;29;20498;-77
2022/10/10 06:24:27;;;;;;;9.70;6.50;;;10.90;99.90;;;;;;4911211;29;20467;-77
2022/10/10 06:26:53;;;;;;;11.70;6.33;;;10.90;99.90;;;;;;4912452;29;20470;-77
2022/10/10 06:29:20;;;;;;;10.23;6.83;;;10.90;99.90;;;;;;4911373;29;20468;-77
2022/10/10 06:31:47;;;;;;;7.90;6.50;;;11.00;99.90;;;;;;4906556;29;20495;-76
2022/10/10 06:34:14;;;;;;;9.13;6.17;;;11.00;99.90;;;;;;4909694;29;20468;-76
2022/10/10 06:36:42;;;;;;;9.80;6.53;;;11.00;99.90;;;;;;4913182;29;20491;-77
2022/10/10 06:39:08;;;;;;;10.70;7.03;;;11.00;99.90;;;;;;4907509;29;20462;-78
2022/10/10 06:41:35;;;;;;;6.40;5.80;;;11.00;99.90;;;;;;4913295;29;20483;-74
2022/10/10 06:44:02;;;;;;;11.30;6.57;;;11.00;99.90;;;;;;4911896;29;20474;-78
2022/10/10 06:46:29;;;;;;;9.30;6.77;;;11.00;99.90;;;;;;4912486;29;20498;-76
2022/10/10 06:48:56;;;;;;;10.60;6.77;;;11.00;99.90;;;;;;4912685;29;20471;-78
2022/10/10 06:51:24;;;;;;;10.60;6.80;;;11.00;99.90;;;;;;4912087;29;20482;-77
2022/10/10 06:53:52;;;;;;;8.70;5.63;;;11.10;99.90;;;;;;4912392;29;20463;-78
2022/10/10 06:56:20;;;;;;;8.50;6.00;;;11.10;99.90;;;;;;4911602;29;20495;-77
2022/10/10 06:58:48;;;;;;;10.80;7.67;;;11.10;99.90;;;;;;4912119;29;20477;-78
2022/10/10 07:01:17;;;;;;;7.50;6.07;;;11.20;99.90;;;;;;4913200;29;20495;-77
2022/10/10 07:03:43;;;;;;;7.70;6.10;;;11.20;99.90;;;;;;4910507;29;20467;-74
2022/10/10 07:06:11;;;;;;;10.13;6.87;;;11.20;99.90;;;;;;4901976;29;20459;-77
2022/10/10 07:08:39;;;;;;;8.10;6.47;;;11.20;99.90;;;;;;4891602;29;20573;-75
2022/10/10 07:11:08;;;;;;;11.33;6.60;;;11.20;99.90;;;;;;4891293;29;20484;-77
2022/10/10 07:13:36;;;;;;;12.60;6.63;;;11.30;99.90;;;;;;4891446;29;20531;-74
2022/10/10 07:16:04;;;;;;;14.63;6.77;;;11.30;99.90;;;;;;4903877;29;20991;-77
2022/10/10 07:18:32;;;;;;;8.90;6.83;;;11.40;99.90;;;;;;4901646;29;20464;-77
2022/10/10 07:21:00;;;;;;;10.00;6.37;;;11.40;99.90;;;;;;4903633;29;20487;-76
2022/10/10 07:23:30;;;;;;;9.80;6.43;;;11.40;99.90;;;;;;4900683;29;20468;-76
2022/10/10 07:26:00;;;;;;;11.23;7.23;;;11.50;99.90;;;;;;4898891;29;21165;-76
2022/10/10 07:28:28;;;;;;;16.40;7.87;;;11.50;99.90;;;;;;4906672;29;20467;-76
2022/10/10 07:30:59;;;;;;;17.50;7.57;;;11.50;99.90;;;;;;4910419;29;20487;-74
2022/10/10 07:33:30;;;;;;;14.03;7.10;;;11.60;99.90;;;;;;4909533;29;20952;-77
2022/10/10 07:35:57;;;;;;;8.53;7.07;;;11.70;99.90;;;;;;4908191;29;20498;-77
2022/10/10 07:38:24;;;;;;;14.07;6.97;;;11.70;99.90;;;;;;4909154;29;20467;-77
2022/10/10 07:40:51;;;;;;;8.40;6.40;;;11.80;99.90;;;;;;4908925;29;20494;-77
2022/10/10 07:43:18;;;;;;;10.73;6.83;;;11.90;99.90;;;;;;4906979;29;20481;-77
2022/10/10 07:45:47;;;;;;;10.73;7.50;;;11.90;99.90;;;;;;4907377;29;20522;-77
2022/10/10 07:48:13;;;;;;;9.60;7.33;;;12.00;99.90;;;;;;4909201;29;20933;-76
2022/10/10 07:50:41;;;;;;;11.03;6.60;;;12.10;99.90;;;;;;4908817;29;21025;-77
2022/10/10 07:53:08;;;;;;;8.90;6.03;;;12.30;99.90;;;;;;4909480;29;20522;-77
2022/10/10 07:55:35;;;;;;;13.53;7.70;;;12.40;99.90;;;;;;4908348;29;20475;-77
2022/10/10 07:58:02;;;;;;;11.57;6.03;;;12.60;99.90;;;;;;4908616;29;20902;-73
2022/10/10 08:00:29;;;;;;;8.73;6.47;;;12.70;99.90;;;;;;4907418;29;20463;-77
2022/10/10 08:02:58;;;;;;;10.23;6.37;;;12.80;99.90;;;;;;4909208;29;20454;-77
2022/10/10 08:05:24;;;;;;;11.83;5.57;;;13.00;99.90;;;;;;4908037;29;20823;-73
2022/10/10 08:07:51;;;;;;;8.60;6.47;;;13.20;99.90;;;;;;4900525;29;20474;-77
2022/10/10 08:10:18;;;;;;;7.30;6.30;;;13.30;99.90;;;;;;4905733;29;20989;-76
2022/10/10 08:12:45;;;;;;;13.30;6.90;;;13.40;99.90;;;;;;4905592;29;20466;-76
2022/10/10 08:15:11;;;;;;;10.67;6.50;;;13.50;99.90;;;;;;4908219;29;20467;-76
2022/10/10 08:17:38;;;;;;;11.07;6.87;;;13.50;99.90;;;;;;4908562;29;20505;-76
2022/10/10 08:20:07;;;;;;;8.53;6.40;;;13.60;99.90;;;;;;4909001;29;20846;-76
2022/10/10 08:22:34;;;;;;;12.90;7.23;;;13.60;99.90;;;;;;4897465;29;20495;-76
2022/10/10 08:25:01;;;;;;;7.60;5.70;;;13.70;99.90;;;;;;4896149;29;21353;-77
2022/10/10 08:27:28;;;;;;;9.07;6.80;;;13.80;99.90;;;;;;4908208;29;20952;-76
2022/10/10 08:29:54;;;;;;;10.57;7.30;;;13.90;99.90;;;;;;4910516;29;20455;-77
2022/10/10 08:32:21;;;;;;;8.80;6.53;;;14.00;99.90;;;;;;4911404;29;20822;-76
2022/10/10 08:34:48;;;;;;;17.97;6.63;;;14.10;99.90;;;;;;4911798;29;20458;-79
2022/10/10 08:37:16;;;;;;;8.53;6.43;;;14.10;99.90;;;;;;4912116;29;20495;-76
2022/10/10 08:39:43;;;;;;;9.53;6.90;;;14.20;99.90;;;;;;4911996;29;20470;-76
2022/10/10 08:42:16;;;;;;;9.70;6.30;;;14.30;99.90;;;;;;4911876;29;20487;-77
2022/10/10 08:44:46;;;;;;;6.60;5.87;;;14.30;99.90;;;;;;4911200;29;20459;-77
2022/10/10 08:47:15;;;;;;;8.40;5.90;;;14.40;99.90;;;;;;4912331;29;20475;-77
2022/10/10 08:49:47;;;;;;;19.90;6.00;;;14.40;99.90;;;;;;4912290;29;20463;-77
2022/10/10 08:52:25;;;;;;;10.83;5.87;;;14.50;99.90;;;;;;4912128;29;20498;-77
2022/10/10 08:54:54;;;;;;;12.07;6.60;;;14.50;99.90;;;;;;4911225;29;20466;-77
2022/10/10 08:57:26;;;;;;;9.87;6.47;;;14.60;99.90;;;;;;4911676;29;20498;-77
2022/10/10 08:59:55;;;;;;;11.40;6.40;;;14.70;99.90;;;;;;4911785;29;20457;-77
2022/10/10 09:02:32;;;;;;;9.63;6.20;;;14.70;99.90;;;;;;4911682;29;20491;-77
2022/10/10 09:04:58;;;;;;;9.30;6.00;;;14.80;99.90;;;;;;4910989;29;20473;-78
2022/10/10 09:07:45;;;;;;;8.97;6.00;;;15.00;99.90;;;;;;4911339;29;20478;-77
2022/10/10 09:10:24;;;;;;;8.37;6.27;;;15.20;99.90;;;;;;4911635;29;20458;-77
2022/10/10 09:13:00;;;;;;;6.53;4.83;;;15.40;99.90;;;;;;4911386;29;20467;-77
2022/10/10 09:15:34;;;;;;;6.70;4.93;;;15.60;99.90;;;;;;4910506;29;20562;-77
2022/10/10 09:18:11;;;;;;;8.10;5.23;;;15.70;99.90;;;;;;4906311;29;21309;-77
2022/10/10 09:20:46;;;;;;;10.93;5.00;;;15.80;99.90;;;;;;4904327;29;20494;-77
2022/10/10 09:23:22;;;;;;;6.17;4.70;;;16.00;99.90;;;;;;4897458;29;20460;-77
2022/10/10 09:25:55;;;;;;;6.10;4.37;;;16.40;99.90;;;;;;4909419;29;20459;-77
2022/10/10 09:28:33;;;;;;;7.10;5.00;;;16.80;99.90;;;;;;4910933;29;20573;-77
2022/10/10 09:31:01;;;;;;;9.17;5.30;;;16.90;99.90;;;;;;4902431;29;21029;-77
2022/10/10 09:33:33;;;;;;;9.57;5.10;;;16.90;99.90;;;;;;4909083;29;20968;-76
2022/10/10 09:36:05;;;;;;;5.80;4.70;;;16.90;99.90;;;;;;4898600;29;20451;-77
2022/10/10 09:38:38;;;;;;;6.73;5.33;;;17.00;99.90;;;;;;4900333;29;21007;-77
2022/10/10 09:41:13;;;;;;;6.60;4.53;;;17.20;99.90;;;;;;4897453;29;20486;-77
2022/10/10 09:43:41;;;;;;;8.60;5.60;;;17.40;99.90;;;;;;4911494;29;21342;-78
2022/10/10 09:46:07;;;;;;;8.90;5.27;;;17.50;99.90;;;;;;4910701;29;21114;-78
2022/10/10 09:48:37;;;;;;;7.03;4.43;;;17.60;99.90;;;;;;4910923;29;20812;-78
2022/10/10 09:51:07;;;;;;;10.80;5.00;;;17.70;99.90;;;;;;4911211;29;20486;-78
2022/10/10 09:53:36;;;;;;;7.00;5.40;;;17.80;99.90;;;;;;4911001;29;20452;-78
2022/10/10 09:56:05;;;;;;;7.17;4.83;;;17.90;99.90;;;;;;4910519;29;20467;-78
2022/10/10 09:58:36;;;;;;;5.80;4.53;;;17.90;99.90;;;;;;4910621;29;20498;-78
2022/10/10 10:01:18;;;;;;;9.40;4.87;;;17.90;99.90;;;;;;4910722;29;20498;-78
2022/10/10 10:04:13;;;;;;;8.60;4.27;;;18.10;99.90;;;;;;4911593;29;20459;-78
2022/10/10 10:06:44;;;;;;;4.43;4.03;;;18.40;99.90;;;;;;4911558;29;20534;-73
2022/10/10 10:09:16;;;;;;;9.00;4.60;;;19.00;99.90;;;;;;4909988;29;20967;-73
2022/10/10 10:11:44;;;;;;;5.57;4.17;;;19.40;99.90;;;;;;4910618;29;20475;-73
2022/10/10 10:14:24;;;;;;;10.30;4.40;;;19.30;99.90;;;;;;4909510;29;20467;-74
2022/10/10 10:16:52;;;;;;;6.47;4.00;;;19.40;99.90;;;;;;4910391;29;20583;-72
2022/10/10 10:19:35;;;;;;;5.20;3.90;;;19.30;99.90;;;;;;4910502;29;20470;-73
2022/10/10 10:22:02;;;;;;;6.40;4.37;;;19.40;99.90;;;;;;4908806;29;20495;-72
2022/10/10 10:24:35;;;;;;;6.17;4.47;;;19.40;99.90;;;;;;4909745;29;20463;-73
2022/10/10 10:27:09;;;;;;;7.30;4.30;;;19.50;99.90;;;;;;4909662;29;21034;-73
2022/10/10 10:29:37;;;;;;;5.60;3.67;;;19.60;99.90;;;;;;4910217;29;20545;-73
2022/10/10 10:32:15;;;;;;;7.60;3.57;;;19.70;99.90;;;;;;4910267;29;20510;-74
2022/10/10 10:35:05;;;;;;;4.93;3.67;;;19.70;99.90;;;;;;4902701;29;20451;-72
2022/10/10 10:37:43;;;;;;;8.23;3.57;;;19.60;99.90;;;;;;4909810;29;20502;-73
2022/10/10 10:40:23;;;;;;;10.80;4.03;;;19.70;99.90;;;;;;4909518;29;20545;-73
2022/10/10 10:43:22;;;;;;;4.40;3.23;;;19.50;99.90;;;;;;4909285;29;20455;-73
2022/10/10 10:46:02;;;;;;;6.27;3.27;;;19.50;99.90;;;;;;4908778;29;20470;-72
2022/10/10 10:48:39;;;;;;;6.20;3.50;;;19.60;99.90;;;;;;4907458;29;20495;-71
2022/10/10 10:51:32;;;;;;;4.93;3.70;;;19.70;99.90;;;;;;4909219;29;20485;-71
2022/10/10 10:54:07;;;;;;;8.30;3.27;;;19.80;99.90;;;;;;4908415;29;20953;-71
2022/10/10 10:56:41;;;;;;;5.00;2.77;;;20.40;99.90;;;;;;4909256;29;20458;-71
2022/10/10 10:59:27;;;;;;;5.17;2.77;;;21.20;99.90;;;;;;4900968;29;20478;-71
2022/10/10 11:02:02;;;;;;;7.60;2.70;;;21.30;99.90;;;;;;4899930;29;20488;-71
2022/10/10 11:04:55;;;;;;;4.80;3.20;;;21.30;99.90;;;;;;4899814;29;20458;-72
2022/10/10 11:07:23;;;;;;;3.80;2.90;;;21.60;99.90;;;;;;4908716;29;20474;-71
2022/10/10 11:09:56;;;;;;;6.00;3.20;;;22.00;99.90;;;;;;4909146;29;20474;-72
2022/10/10 11:12:41;;;;;;;4.80;2.60;;;22.00;99.90;;;;;;4903448;29;20891;-72
2022/10/10 11:15:15;;;;;;;6.90;3.17;;;21.60;99.90;;;;;;4909101;29;20459;-71
2022/10/10 11:17:47;;;;;;;3.90;2.23;;;21.30;99.90;;;;;;4909148;29;20495;-72
2022/10/10 11:20:22;;;;;;;5.57;2.23;;;21.20;99.90;;;;;;4909213;29;20464;-73
2022/10/10 11:22:55;;;;;;;3.83;2.20;;;21.00;99.90;;;;;;4909299;29;20459;-72
2022/10/10 11:25:26;;;;;;;3.83;2.37;;;21.10;99.90;;;;;;4908531;29;20460;-70
2022/10/10 11:27:59;;;;;;;5.67;3.10;;;21.50;99.90;;;;;;4909306;29;20452;-71
2022/10/10 11:30:30;;;;;;;6.10;3.00;;;21.50;99.90;;;;;;4908158;29;21002;-72
2022/10/10 11:33:01;;;;;;;5.53;2.93;;;21.60;99.90;;;;;;4908664;29;20454;-72
2022/10/10 11:35:35;;;;;;;4.50;2.83;;;21.60;99.90;;;;;;4908021;29;20459;-72
2022/10/10 11:38:12;;;;;;;4.50;2.20;;;21.60;99.90;;;;;;4889483;29;20495;-73
2022/10/10 11:40:51;;;;;;;5.73;3.20;;;21.60;99.90;;;;;;4906371;29;20478;-74
2022/10/10 11:43:27;;;;;;;5.67;2.80;;;21.70;99.90;;;;;;4903714;29;21297;-74
2022/10/10 11:46:00;;;;;;;6.53;3.00;;;21.70;99.90;;;;;;4893496;29;20462;-72
2022/10/10 11:48:32;;;;;;;4.93;2.70;;;21.90;99.90;;;;;;4897623;29;20462;-73
2022/10/10 11:51:04;;;;;;;4.47;2.80;;;22.60;99.90;;;;;;4907955;29;20491;-73
2022/10/10 11:53:36;;;;;;;6.03;3.00;;;23.50;99.90;;;;;;4908090;29;20514;-73
2022/10/10 11:56:12;;;;;;;7.47;3.00;;;23.60;99.90;;;;;;4903944;29;20465;-74
2022/10/10 11:58:44;;;;;;;5.43;2.57;;;23.50;99.90;;;;;;4907819;29;20517;-74
2022/10/10 12:01:18;;;;;;;7.33;2.63;;;23.70;99.90;;;;;;4908184;29;20505;-74
2022/10/10 12:03:45;;;;;;;4.83;2.67;;;23.90;99.90;;;;;;4908527;29;20920;-71
2022/10/10 12:06:19;;;;;;;6.33;3.30;;;24.00;99.90;;;;;;4910898;29;20459;-71
2022/10/10 12:08:51;;;;;;;4.10;3.33;;;24.10;99.90;;;;;;4911297;29;20459;-73
2022/10/10 12:11:22;;;;;;;5.40;2.67;;;24.20;99.90;;;;;;4911601;29;20479;-73
2022/10/10 12:13:55;;;;;;;3.77;2.70;;;24.30;99.90;;;;;;4911221;29;20467;-73
2022/10/10 12:16:26;;;;;;;6.37;2.80;;;24.30;99.90;;;;;;4911711;29;20867;-73
2022/10/10 12:18:56;;;;;;;5.43;2.97;;;24.20;99.90;;;;;;4911432;29;21327;-73
2022/10/10 12:21:25;;;;;;;7.50;3.13;;;24.20;99.90;;;;;;4911143;29;20483;-73
2022/10/10 12:24:03;;;;;;;5.10;2.73;;;24.40;99.90;;;;;;4911312;29;20548;-73
2022/10/10 12:27:05;;;;;;;5.53;2.97;;;24.60;99.90;;;;;;4910013;29;20463;-73
2022/10/10 12:29:46;;;;;;;5.37;2.83;;;24.70;99.90;;;;;;4898755;29;20459;-73
2022/10/10 12:32:26;;;;;;;10.60;3.03;;;24.70;99.90;;;;;;4912050;29;20479;-73
2022/10/10 12:35:00;;;;;;;8.03;2.80;;;24.80;99.90;;;;;;4909738;29;21288;-73
2022/10/10 12:37:29;;;;;;;8.43;3.00;;;24.70;99.90;;;;;;4910786;29;20491;-73
2022/10/10 12:40:21;;;;;;;12.10;3.23;;;24.70;99.90;;;;;;4911897;29;20467;-73
2022/10/10 12:43:21;;;;;;;6.73;2.77;;;24.80;99.90;;;;;;4909126;29;20475;-74
2022/10/10 12:46:13;;;;;;;8.70;2.73;;;24.90;99.90;;;;;;4912065;29;20482;-72
2022/10/10 12:48:41;;;;;;;9.57;2.93;;;24.90;99.90;;;;;;4912461;29;20458;-73
2022/10/10 12:51:19;;;;;;;7.30;2.83;;;25.00;99.90;;;;;;4911313;29;20475;-74
2022/10/10 12:53:49;;;;;;;9.33;3.27;;;25.20;99.90;;;;;;4912130;29;20532;-76
2022/10/10 12:56:16;;;;;;;10.37;2.90;;;25.20;99.90;;;;;;4911368;29;20463;-76
2022/10/10 12:58:47;;;;;;;11.80;3.00;;;25.20;99.90;;;;;;4911488;29;20526;-75
2022/10/10 13:01:25;;;;;;;7.70;2.53;;;25.10;99.90;;;;;;4909826;29;20495;-75
2022/10/10 13:03:54;;;;;;;9.60;3.43;;;24.90;99.90;;;;;;4896721;29;20464;-75
2022/10/10 13:06:31;;;;;;;6.30;2.93;;;24.90;99.90;;;;;;4910799;29;20463;-75
2022/10/10 13:09:00;;;;;;;8.57;2.97;;;25.00;99.90;;;;;;4911316;29;20459;-75
2022/10/10 13:11:27;;;;;;;5.23;2.67;;;24.90;99.90;;;;;;4910910;29;20483;-76
2022/10/10 13:13:56;;;;;;;14.13;3.60;;;24.90;99.90;;;;;;4907903;29;20468;-74
2022/10/10 13:16:26;;;;;;;7.20;2.97;;;25.00;99.90;;;;;;4911347;29;20466;-75
2022/10/10 13:18:55;;;;;;;10.50;2.87;;;25.10;99.90;;;;;;4911493;29;20494;-74
2022/10/10 13:21:26;;;;;;;11.27;2.93;;;25.20;99.90;;;;;;4910521;29;20494;-74
2022/10/10 13:23:58;;;;;;;11.57;3.37;;;25.00;99.90;;;;;;4911142;29;20459;-74
2022/10/10 13:26:30;;;;;;;13.77;2.73;;;24.90;99.90;;;;;;4907661;29;20471;-75
2022/10/10 13:29:00;;;;;;;14.07;3.10;;;25.00;99.90;;;;;;4913463;29;20940;-75
2022/10/10 13:31:30;;;;;;;9.97;2.83;;;25.00;99.90;;;;;;4906331;29;21007;-74
2022/10/10 13:33:58;;;;;;;12.63;3.60;;;25.20;99.90;;;;;;4909389;29;20471;-74
2022/10/10 13:36:29;;;;;;;6.70;3.13;;;25.20;99.90;;;;;;4905539;29;20455;-74
2022/10/10 13:38:56;;;;;;;8.90;2.93;;;25.30;99.90;;;;;;4905394;29;20569;-74
2022/10/10 13:41:25;;;;;;;8.00;2.97;;;25.30;99.90;;;;;;4910883;29;20487;-74
2022/10/10 13:43:52;;;;;;;11.37;3.60;;;25.20;99.90;;;;;;4899000;29;21106;-73
2022/10/10 13:46:24;;;;;;;9.87;3.57;;;25.20;99.90;;;;;;4899790;29;20471;-73
2022/10/10 13:48:52;;;;;;;7.97;3.23;;;25.20;99.90;;;;;;4895576;29;20475;-73
2022/10/10 13:51:19;;;;;;;12.03;3.20;;;25.10;99.90;;;;;;4910901;29;20490;-74
2022/10/10 13:53:51;;;;;;;7.83;3.97;;;25.00;99.90;;;;;;4907827;29;20522;-73
2022/10/10 13:56:26;;;;;;;9.30;3.03;;;25.00;99.90;;;;;;4902645;29;20459;-73
2022/10/10 13:58:55;;;;;;;19.57;3.53;;;24.90;99.90;;;;;;4902667;29;20498;-74
2022/10/10 14:01:29;;;;;;;8.50;3.70;;;24.90;99.90;;;;;;4901039;29;20495;-74
2022/10/10 14:04:17;;;;;;;8.37;3.40;;;24.80;99.90;;;;;;4899453;29;20469;-73
2022/10/10 14:06:53;;;;;;;8.87;2.80;;;25.00;99.90;;;;;;4910372;29;20991;-73
2022/10/10 14:09:25;;;;;;;11.47;2.93;;;25.00;99.90;;;;;;4901319;29;21979;-74
2022/10/10 14:11:54;;;;;;;11.50;3.13;;;25.00;99.90;;;;;;4910524;29;20491;-73
2022/10/10 14:14:23;;;;;;;5.83;2.70;;;25.00;99.90;;;;;;4903769;29;20463;-74
2022/10/10 14:17:00;;;;;;;11.33;3.23;;;25.00;99.90;;;;;;4910387;29;20475;-73
2022/10/10 14:19:29;;;;;;;8.87;2.80;;;25.00;99.90;;;;;;4910013;29;20509;-73
2022/10/10 14:21:56;;;;;;;10.90;3.70;;;25.00;99.90;;;;;;4909988;29;20483;-74
2022/10/10 14:24:33;;;;;;;9.73;3.13;;;25.00;99.90;;;;;;4908972;29;20463;-74
2022/10/10 14:27:07;;;;;;;12.57;3.33;;;25.10;99.90;;;;;;4909395;29;20467;-73
2022/10/10 14:29:34;;;;;;;7.43;2.90;;;25.20;99.90;;;;;;4908407;29;20456;-74
2022/10/10 14:32:00;;;;;;;10.90;3.43;;;25.20;99.90;;;;;;4909417;29;20590;-73
2022/10/10 14:34:28;;;;;;;9.33;2.90;;;25.30;99.90;;;;;;4909965;29;20467;-73
2022/10/10 14:36:55;;;;;;;14.37;3.80;;;25.20;99.90;;;;;;4908101;29;20464;-73
2022/10/10 14:39:22;;;;;;;9.30;3.40;;;25.20;99.90;;;;;;4897911;29;20978;-74
2022/10/10 14:41:49;;;;;;;11.13;3.03;;;25.10;99.90;;;;;;4909474;29;20498;-74
2022/10/10 14:44:16;;;;;;;12.70;3.10;;;25.00;99.90;;;;;;4909279;29;20459;-73
2022/10/10 14:46:42;;;;;;;12.17;3.20;;;25.00;99.90;;;;;;4910017;29;20460;-73
2022/10/10 14:49:17;;;;;;;14.53;3.37;;;25.10;99.90;;;;;;4910149;29;20463;-73
2022/10/10 14:51:45;;;;;;;11.17;3.57;;;25.00;99.90;;;;;;4911291;29;20505;-74
2022/10/10 14:54:13;;;;;;;9.43;3.40;;;25.00;99.90;;;;;;4910492;29;20463;-74
2022/10/10 14:56:41;;;;;;;12.50;3.43;;;24.90;99.90;;;;;;4910245;29;20468;-75
2022/10/10 14:59:15;;;;;;;13.97;3.23;;;24.90;99.90;;;;;;4911008;29;20495;-74
2022/10/10 15:01:42;;;;;;;10.70;3.77;;;24.90;99.90;;;;;;4906312;29;20490;-74
2022/10/10 15:04:09;;;;;;;7.40;2.87;;;25.00;99.90;;;;;;4903347;29;20463;-75
2022/10/10 15:06:35;;;;;;;10.30;3.57;;;24.80;99.90;;;;;;4902100;29;20459;-74
2022/10/10 15:09:04;;;;;;;19.90;4.40;;;24.70;99.90;;;;;;4909980;29;20459;-74
2022/10/10 15:11:30;;;;;;;9.13;4.03;;;24.50;99.90;;;;;;4909375;29;20486;-74
2022/10/10 15:13:57;;;;;;;9.77;4.10;;;24.50;99.90;;;;;;4910103;29;20473;-74
2022/10/10 15:16:24;;;;;;;14.33;3.57;;;24.50;99.90;;;;;;4910070;29;20463;-74
2022/10/10 15:18:51;;;;;;;9.83;3.30;;;24.60;99.90;;;;;;4910261;29;21186;-74
2022/10/10 15:21:18;;;;;;;12.43;3.40;;;24.40;99.90;;;;;;4910246;29;20483;-74
2022/10/10 15:23:44;;;;;;;23.13;4.63;;;24.30;99.90;;;;;;4910410;29;20455;-73
2022/10/10 15:26:13;;;;;;;12.70;3.53;;;24.20;99.90;;;;;;4907513;29;20570;-75
2022/10/10 15:28:39;;;;;;;15.00;3.30;;;24.10;99.90;;;;;;4909104;29;20459;-75
2022/10/10 15:31:07;;;;;;;12.53;3.47;;;24.00;99.90;;;;;;4907040;29;20486;-76
2022/10/10 15:33:33;;;;;;;13.23;3.60;;;24.00;99.90;;;;;;4909193;29;20455;-76
2022/10/10 15:36:02;;;;;;;11.40;3.60;;;23.90;99.90;;;;;;4908416;29;20838;-75
2022/10/10 15:38:30;;;;;;;15.57;3.50;;;23.70;99.90;;;;;;4911057;29;20491;-74
2022/10/10 15:40:58;;;;;;;7.93;3.20;;;23.60;99.90;;;;;;4912497;29;20483;-74
2022/10/10 15:43:26;;;;;;;12.37;4.03;;;23.70;99.90;;;;;;4912277;29;20473;-74
2022/10/10 15:45:55;;;;;;;14.40;4.00;;;23.60;99.90;;;;;;4911800;29;20986;-75
2022/10/10 15:48:21;;;;;;;12.73;4.17;;;23.50;99.90;;;;;;4912598;29;20845;-75
2022/10/10 15:50:50;;;;;;;11.00;4.27;;;23.40;99.90;;;;;;4912871;29;20482;-75
2022/10/10 15:53:17;;;;;;;12.63;4.60;;;23.40;99.90;;;;;;4912716;29;20478;-75
2022/10/10 15:55:45;;;;;;;10.90;4.93;;;23.30;99.90;;;;;;4911989;29;20574;-75
2022/10/10 15:58:12;;;;;;;12.70;5.43;;;23.20;99.90;;;;;;4911789;29;20478;-75
2022/10/10 16:00:42;;;;;;;12.47;5.00;;;23.10;99.90;;;;;;4912917;29;20522;-75
2022/10/10 16:03:09;;;;;;;9.47;4.50;;;23.00;99.90;;;;;;4896361;29;20460;-75
2022/10/10 16:05:36;;;;;;;15.43;4.40;;;23.00;99.90;;;;;;4902865;29;20478;-76
2022/10/10 16:08:04;;;;;;;10.00;4.17;;;22.80;99.90;;;;;;4914126;29;20463;-76
2022/10/10 16:10:31;;;;;;;11.30;3.90;;;22.80;99.90;;;;;;4919782;29;20481;-75
2022/10/10 16:12:57;;;;;;;11.07;4.03;;;22.60;99.90;;;;;;4906002;29;20215;-75
2022/10/10 16:15:24;;;;;;;8.20;3.90;;;22.60;99.90;;;;;;4906045;29;21266;-76
2022/10/10 16:17:52;;;;;;;9.97;3.90;;;22.60;99.90;;;;;;4895623;29;21477;-75
2022/10/10 16:20:19;;;;;;;10.57;4.33;;;22.50;99.90;;;;;;4912981;29;21204;-77
2022/10/10 16:22:46;;;;;;;8.63;3.47;;;22.40;99.90;;;;;;4912605;29;20477;-76
2022/10/10 16:25:12;;;;;;;10.53;4.10;;;22.20;99.90;;;;;;4911928;29;20820;-77
2022/10/10 16:27:39;;;;;;;12.70;3.97;;;22.10;99.90;;;;;;4912545;29;20463;-76
2022/10/10 16:30:07;;;;;;;14.53;3.73;;;22.00;99.90;;;;;;4912774;29;21298;-74
2022/10/10 16:32:34;;;;;;;13.03;3.77;;;21.90;99.90;;;;;;4912612;29;20490;-76
2022/10/10 16:35:02;;;;;;;8.23;3.63;;;21.80;99.90;;;;;;4912219;29;20463;-76
2022/10/10 16:37:29;;;;;;;11.17;4.70;;;21.70;99.90;;;;;;4911847;29;20466;-77
2022/10/10 16:39:56;;;;;;;11.10;4.03;;;21.60;99.90;;;;;;4912714;29;20495;-77
2022/10/10 16:42:23;;;;;;;11.17;3.57;;;21.50;99.90;;;;;;4912112;29;20479;-75
2022/10/10 16:44:49;;;;;;;8.03;3.67;;;21.40;99.90;;;;;;4910227;29;20470;-74
2022/10/10 16:47:16;;;;;;;18.80;4.40;;;21.40;99.90;;;;;;4918421;29;20458;-73
2022/10/10 16:49:43;;;;;;;10.33;4.00;;;21.30;99.90;;;;;;4916171;29;20803;-76
2022/10/10 16:52:11;;;;;;;14.10;3.77;;;21.20;99.90;;;;;;4913638;29;20486;-76
2022/10/10 16:54:38;;;;;;;16.03;4.20;;;21.10;99.90;;;;;;4911271;29;20459;-77
2022/10/10 16:57:04;;;;;;;11.63;3.63;;;21.00;99.90;;;;;;4912065;29;20843;-75
2022/10/10 16:59:33;;;;;;;12.50;4.03;;;20.90;99.90;;;;;;4911770;29;20518;-77